sensor_id;sensor_type;location;lat;lon;timestamp;P1;durP1;ratioP1;P2;durP2;ratioP2
10335;SDS011;5213;53.548;9.930;2022-10-16T00:01:26;8.90;;;7.32;;
10335;SDS011;5213;53.548;9.930;2022-10-16T00:03:52;8.70;;;7.78;;
10335;SDS011;5213;53.548;9.930;2022-10-16T00:06:19;8.15;;;6.75;;
10335;SDS011;5213;53.548;9.930;2022-10-16T00:08:45;7.70;;;6.20;;
10335;SDS011;5213;53.548;9.930;2022-10-16T00:11:17;8.90;;;5.90;;
10335;SDS011;5213;53.548;9.930;2022-10-16T00:13:43;7.35;;;5.70;;
10335;SDS011;5213;53.548;9.930;2022-10-16T00:16:10;5.43;;;4.93;;
10335;SDS011;5213;53.548;9.930;2022-10-16T00:18:37;6.22;;;4.90;;
10335;SDS011;5213;53.548;9.930;2022-10-16T00:21:04;7.03;;;4.57;;
10335;SDS011;5213;53.548;9.930;2022-10-16T00:23:31;4.93;;;4.03;;
10335;SDS011;5213;53.548;9.930;2022-10-16T00:25:57;6.20;;;4.10;;
10335;SDS011;5213;53.548;9.930;2022-10-16T00:28:24;5.72;;;3.90;;
10335;SDS011;5213;53.548;9.930;2022-10-16T00:30:50;4.32;;;3.60;;
10335;SDS011;5213;53.548;9.930;2022-10-16T00:33:16;5.55;;;3.72;;
10335;SDS011;5213;53.548;9.930;2022-10-16T00:35:42;4.60;;;3.45;;
10335;SDS011;5213;53.548;9.930;2022-10-16T00:38:08;4.53;;;3.47;;
10335;SDS011;5213;53.548;9.930;2022-10-16T00:40:34;4.05;;;3.30;;
10335;SDS011;5213;53.548;9.930;2022-10-16T00:43:00;6.43;;;3.60;;
10335;SDS011;5213;53.548;9.930;2022-10-16T00:45:26;5.20;;;3.50;;
10335;SDS011;5213;53.548;9.930;2022-10-16T00:47:53;4.07;;;3.67;;
10335;SDS011;5213;53.548;9.930;2022-10-16T00:50:28;4.93;;;3.50;;
10335;SDS011;5213;53.548;9.930;2022-10-16T00:52:56;5.25;;;3.10;;
10335;SDS011;5213;53.548;9.930;2022-10-16T00:55:22;6.47;;;3.42;;
10335;SDS011;5213;53.548;9.930;2022-10-16T00:57:48;5.05;;;3.70;;
10335;SDS011;5213;53.548;9.930;2022-10-16T01:00:16;3.67;;;3.30;;
10335;SDS011;5213;53.548;9.930;2022-10-16T01:02:42;7.53;;;3.50;;
10335;SDS011;5213;53.548;9.930;2022-10-16T01:05:08;4.13;;;3.15;;
10335;SDS011;5213;53.548;9.930;2022-10-16T01:10:14;6.07;;;3.72;;
10335;SDS011;5213;53.548;9.930;2022-10-16T01:20:34;4.15;;;2.60;;
10335;SDS011;5213;53.548;9.930;2022-10-16T01:28:13;3.35;;;2.50;;
10335;SDS011;5213;53.548;9.930;2022-10-16T01:30:40;5.32;;;2.50;;
10335;SDS011;5213;53.548;9.930;2022-10-16T01:33:17;3.92;;;3.05;;
10335;SDS011;5213;53.548;9.930;2022-10-16T01:36:03;4.95;;;3.00;;
10335;SDS011;5213;53.548;9.930;2022-10-16T01:38:33;4.03;;;2.78;;
10335;SDS011;5213;53.548;9.930;2022-10-16T01:41:06;5.68;;;3.22;;
10335;SDS011;5213;53.548;9.930;2022-10-16T01:43:34;5.32;;;2.90;;
10335;SDS011;5213;53.548;9.930;2022-10-16T01:46:01;5.70;;;3.10;;
10335;SDS011;5213;53.548;9.930;2022-10-16T01:48:27;5.50;;;2.75;;
10335;SDS011;5213;53.548;9.930;2022-10-16T01:51:03;4.15;;;3.30;;
10335;SDS011;5213;53.548;9.930;2022-10-16T01:53:30;3.88;;;3.35;;
10335;SDS011;5213;53.548;9.930;2022-10-16T01:55:57;6.35;;;3.28;;
10335;SDS011;5213;53.548;9.930;2022-10-16T01:58:24;3.65;;;3.08;;
10335;SDS011;5213;53.548;9.930;2022-10-16T02:00:50;3.80;;;3.38;;
10335;SDS011;5213;53.548;9.930;2022-10-16T02:03:18;4.15;;;3.63;;
10335;SDS011;5213;53.548;9.930;2022-10-16T02:05:46;6.65;;;3.50;;
10335;SDS011;5213;53.548;9.930;2022-10-16T02:08:12;7.25;;;4.07;;
10335;SDS011;5213;53.548;9.930;2022-10-16T02:10:38;4.20;;;3.70;;
10335;SDS011;5213;53.548;9.930;2022-10-16T02:14:05;5.35;;;3.30;;
10335;SDS011;5213;53.548;9.930;2022-10-16T02:15:59;5.88;;;3.47;;
10335;SDS011;5213;53.548;9.930;2022-10-16T02:18:26;6.22;;;3.13;;
10335;SDS011;5213;53.548;9.930;2022-10-16T02:23:23;5.68;;;3.13;;
10335;SDS011;5213;53.548;9.930;2022-10-16T02:25:50;4.47;;;3.20;;
10335;SDS011;5213;53.548;9.930;2022-10-16T02:28:18;3.30;;;3.00;;
10335;SDS011;5213;53.548;9.930;2022-10-16T02:33:12;9.00;;;2.90;;
10335;SDS011;5213;53.548;9.930;2022-10-16T02:35:39;5.05;;;2.80;;
10335;SDS011;5213;53.548;9.930;2022-10-16T02:38:06;3.92;;;2.97;;
10335;SDS011;5213;53.548;9.930;2022-10-16T02:40:33;5.15;;;2.58;;
10335;SDS011;5213;53.548;9.930;2022-10-16T02:42:59;5.60;;;2.72;;
10335;SDS011;5213;53.548;9.930;2022-10-16T02:45:25;4.38;;;3.25;;
10335;SDS011;5213;53.548;9.930;2022-10-16T02:47:51;7.45;;;3.00;;
10335;SDS011;5213;53.548;9.930;2022-10-16T02:50:17;4.32;;;2.90;;
10335;SDS011;5213;53.548;9.930;2022-10-16T02:52:43;4.60;;;2.90;;
10335;SDS011;5213;53.548;9.930;2022-10-16T02:55:09;3.63;;;3.00;;
10335;SDS011;5213;53.548;9.930;2022-10-16T02:57:35;4.80;;;2.92;;
10335;SDS011;5213;53.548;9.930;2022-10-16T03:00:03;3.88;;;2.88;;
10335;SDS011;5213;53.548;9.930;2022-10-16T03:02:29;3.03;;;2.80;;
10335;SDS011;5213;53.548;9.930;2022-10-16T03:04:55;4.22;;;2.85;;
10335;SDS011;5213;53.548;9.930;2022-10-16T03:07:21;7.18;;;2.97;;
10335;SDS011;5213;53.548;9.930;2022-10-16T03:09:47;7.22;;;3.20;;
10335;SDS011;5213;53.548;9.930;2022-10-16T03:12:13;6.50;;;3.17;;
10335;SDS011;5213;53.548;9.930;2022-10-16T03:14:39;4.38;;;3.45;;
10335;SDS011;5213;53.548;9.930;2022-10-16T03:17:05;4.60;;;3.35;;
10335;SDS011;5213;53.548;9.930;2022-10-16T03:19:31;4.28;;;2.97;;
10335;SDS011;5213;53.548;9.930;2022-10-16T03:21:57;4.68;;;2.78;;
10335;SDS011;5213;53.548;9.930;2022-10-16T03:24:23;3.38;;;3.10;;
10335;SDS011;5213;53.548;9.930;2022-10-16T03:26:49;4.10;;;3.28;;
10335;SDS011;5213;53.548;9.930;2022-10-16T03:29:15;4.20;;;3.15;;
10335;SDS011;5213;53.548;9.930;2022-10-16T03:31:41;4.30;;;2.58;;
10335;SDS011;5213;53.548;9.930;2022-10-16T03:34:07;2.95;;;2.70;;
10335;SDS011;5213;53.548;9.930;2022-10-16T03:36:33;4.47;;;2.72;;
10335;SDS011;5213;53.548;9.930;2022-10-16T03:38:59;4.43;;;2.80;;
10335;SDS011;5213;53.548;9.930;2022-10-16T03:41:25;5.38;;;3.25;;
10335;SDS011;5213;53.548;9.930;2022-10-16T03:43:51;5.10;;;3.20;;
10335;SDS011;5213;53.548;9.930;2022-10-16T03:46:17;8.30;;;3.78;;
10335;SDS011;5213;53.548;9.930;2022-10-16T03:48:43;5.05;;;3.55;;
10335;SDS011;5213;53.548;9.930;2022-10-16T03:51:09;5.32;;;3.22;;
10335;SDS011;5213;53.548;9.930;2022-10-16T03:53:35;7.47;;;3.20;;
10335;SDS011;5213;53.548;9.930;2022-10-16T03:56:01;7.57;;;3.03;;
10335;SDS011;5213;53.548;9.930;2022-10-16T03:58:27;5.13;;;3.00;;
10335;SDS011;5213;53.548;9.930;2022-10-16T04:00:53;4.05;;;3.08;;
10335;SDS011;5213;53.548;9.930;2022-10-16T04:03:19;5.18;;;3.05;;
10335;SDS011;5213;53.548;9.930;2022-10-16T04:05:46;4.43;;;3.03;;
10335;SDS011;5213;53.548;9.930;2022-10-16T04:08:12;4.63;;;3.60;;
10335;SDS011;5213;53.548;9.930;2022-10-16T04:10:38;7.38;;;3.47;;
10335;SDS011;5213;53.548;9.930;2022-10-16T04:13:04;5.20;;;3.50;;
10335;SDS011;5213;53.548;9.930;2022-10-16T04:15:30;4.00;;;3.00;;
10335;SDS011;5213;53.548;9.930;2022-10-16T04:17:56;4.95;;;3.10;;
10335;SDS011;5213;53.548;9.930;2022-10-16T04:20:22;6.05;;;2.85;;
10335;SDS011;5213;53.548;9.930;2022-10-16T04:22:48;4.97;;;2.90;;
10335;SDS011;5213;53.548;9.930;2022-10-16T04:25:14;3.88;;;3.03;;
10335;SDS011;5213;53.548;9.930;2022-10-16T04:27:40;3.40;;;3.08;;
10335;SDS011;5213;53.548;9.930;2022-10-16T04:30:06;6.43;;;3.30;;
10335;SDS011;5213;53.548;9.930;2022-10-16T04:32:32;6.60;;;3.58;;
10335;SDS011;5213;53.548;9.930;2022-10-16T04:34:58;4.10;;;3.60;;
10335;SDS011;5213;53.548;9.930;2022-10-16T04:37:24;4.72;;;3.30;;
10335;SDS011;5213;53.548;9.930;2022-10-16T04:39:51;4.18;;;3.35;;
10335;SDS011;5213;53.548;9.930;2022-10-16T04:42:17;6.55;;;3.42;;
10335;SDS011;5213;53.548;9.930;2022-10-16T04:44:43;4.93;;;3.20;;
10335;SDS011;5213;53.548;9.930;2022-10-16T04:47:09;3.70;;;3.40;;
10335;SDS011;5213;53.548;9.930;2022-10-16T04:49:35;5.30;;;3.65;;
10335;SDS011;5213;53.548;9.930;2022-10-16T04:52:01;5.78;;;4.05;;
10335;SDS011;5213;53.548;9.930;2022-10-16T04:54:27;4.80;;;4.38;;
10335;SDS011;5213;53.548;9.930;2022-10-16T04:56:53;6.28;;;4.80;;
10335;SDS011;5213;53.548;9.930;2022-10-16T04:59:19;6.22;;;4.47;;
10335;SDS011;5213;53.548;9.930;2022-10-16T05:01:45;6.00;;;4.70;;
10335;SDS011;5213;53.548;9.930;2022-10-16T05:04:11;9.07;;;5.20;;
10335;SDS011;5213;53.548;9.930;2022-10-16T05:06:38;7.30;;;5.20;;
10335;SDS011;5213;53.548;9.930;2022-10-16T05:09:04;7.97;;;5.20;;
10335;SDS011;5213;53.548;9.930;2022-10-16T05:11:30;8.95;;;4.60;;
10335;SDS011;5213;53.548;9.930;2022-10-16T05:13:56;6.55;;;4.95;;
10335;SDS011;5213;53.548;9.930;2022-10-16T05:16:22;7.65;;;4.70;;
10335;SDS011;5213;53.548;9.930;2022-10-16T05:18:48;6.70;;;4.78;;
10335;SDS011;5213;53.548;9.930;2022-10-16T05:21:14;9.05;;;4.90;;
10335;SDS011;5213;53.548;9.930;2022-10-16T05:23:40;5.78;;;4.75;;
10335;SDS011;5213;53.548;9.930;2022-10-16T05:26:06;6.57;;;5.13;;
10335;SDS011;5213;53.548;9.930;2022-10-16T05:28:32;7.82;;;4.53;;
10335;SDS011;5213;53.548;9.930;2022-10-16T05:30:58;7.35;;;5.03;;
10335;SDS011;5213;53.548;9.930;2022-10-16T05:33:25;6.88;;;4.45;;
10335;SDS011;5213;53.548;9.930;2022-10-16T05:35:51;7.50;;;4.82;;
10335;SDS011;5213;53.548;9.930;2022-10-16T05:38:17;8.32;;;4.72;;
10335;SDS011;5213;53.548;9.930;2022-10-16T05:40:43;7.18;;;4.63;;
10335;SDS011;5213;53.548;9.930;2022-10-16T05:43:15;6.82;;;4.45;;
10335;SDS011;5213;53.548;9.930;2022-10-16T05:45:41;6.97;;;4.00;;
10335;SDS011;5213;53.548;9.930;2022-10-16T05:48:07;5.55;;;3.50;;
10335;SDS011;5213;53.548;9.930;2022-10-16T05:50:33;6.22;;;3.78;;
10335;SDS011;5213;53.548;9.930;2022-10-16T05:52:59;5.15;;;3.30;;
10335;SDS011;5213;53.548;9.930;2022-10-16T05:55:25;5.70;;;2.90;;
10335;SDS011;5213;53.548;9.930;2022-10-16T05:57:53;3.53;;;3.10;;
10335;SDS011;5213;53.548;9.930;2022-10-16T06:00:19;4.80;;;3.10;;
10335;SDS011;5213;53.548;9.930;2022-10-16T06:02:45;4.78;;;3.15;;
10335;SDS011;5213;53.548;9.930;2022-10-16T06:05:11;6.95;;;2.80;;
10335;SDS011;5213;53.548;9.930;2022-10-16T06:07:37;3.17;;;2.42;;
10335;SDS011;5213;53.548;9.930;2022-10-16T06:10:03;6.53;;;3.30;;
10335;SDS011;5213;53.548;9.930;2022-10-16T06:12:29;3.67;;;2.78;;
10335;SDS011;5213;53.548;9.930;2022-10-16T06:14:55;3.20;;;2.50;;
10335;SDS011;5213;53.548;9.930;2022-10-16T06:17:21;3.47;;;2.90;;
10335;SDS011;5213;53.548;9.930;2022-10-16T06:19:47;4.28;;;2.95;;
10335;SDS011;5213;53.548;9.930;2022-10-16T06:22:13;4.43;;;2.97;;
10335;SDS011;5213;53.548;9.930;2022-10-16T06:24:39;3.65;;;2.72;;
10335;SDS011;5213;53.548;9.930;2022-10-16T06:27:05;3.70;;;2.72;;
10335;SDS011;5213;53.548;9.930;2022-10-16T06:29:31;3.35;;;2.60;;
10335;SDS011;5213;53.548;9.930;2022-10-16T06:31:57;5.63;;;2.97;;
10335;SDS011;5213;53.548;9.930;2022-10-16T06:34:23;7.07;;;2.97;;
10335;SDS011;5213;53.548;9.930;2022-10-16T06:36:49;8.20;;;3.50;;
10335;SDS011;5213;53.548;9.930;2022-10-16T06:39:15;5.70;;;3.72;;
10335;SDS011;5213;53.548;9.930;2022-10-16T06:41:41;6.05;;;3.50;;
10335;SDS011;5213;53.548;9.930;2022-10-16T06:44:08;7.22;;;3.70;;
10335;SDS011;5213;53.548;9.930;2022-10-16T06:46:34;5.80;;;3.30;;
10335;SDS011;5213;53.548;9.930;2022-10-16T06:49:00;5.53;;;3.50;;
10335;SDS011;5213;53.548;9.930;2022-10-16T06:51:26;13.50;;;3.42;;
10335;SDS011;5213;53.548;9.930;2022-10-16T06:53:53;5.63;;;3.63;;
10335;SDS011;5213;53.548;9.930;2022-10-16T06:56:20;3.60;;;3.13;;
10335;SDS011;5213;53.548;9.930;2022-10-16T06:58:46;6.38;;;3.45;;
10335;SDS011;5213;53.548;9.930;2022-10-16T07:01:13;3.90;;;3.38;;
10335;SDS011;5213;53.548;9.930;2022-10-16T07:03:40;4.70;;;3.60;;
10335;SDS011;5213;53.548;9.930;2022-10-16T07:06:07;5.22;;;3.65;;
10335;SDS011;5213;53.548;9.930;2022-10-16T07:08:34;3.67;;;3.30;;
10335;SDS011;5213;53.548;9.930;2022-10-16T07:11:01;4.20;;;3.40;;
10335;SDS011;5213;53.548;9.930;2022-10-16T07:13:27;5.82;;;3.20;;
10335;SDS011;5213;53.548;9.930;2022-10-16T07:15:53;5.55;;;3.72;;
10335;SDS011;5213;53.548;9.930;2022-10-16T07:18:19;4.45;;;3.58;;
10335;SDS011;5213;53.548;9.930;2022-10-16T07:20:45;6.95;;;3.78;;
10335;SDS011;5213;53.548;9.930;2022-10-16T07:23:11;5.63;;;3.92;;
10335;SDS011;5213;53.548;9.930;2022-10-16T07:25:37;4.78;;;3.70;;
10335;SDS011;5213;53.548;9.930;2022-10-16T07:28:03;5.00;;;3.78;;
10335;SDS011;5213;53.548;9.930;2022-10-16T07:30:29;4.70;;;3.88;;
10335;SDS011;5213;53.548;9.930;2022-10-16T07:32:55;5.38;;;3.67;;
10335;SDS011;5213;53.548;9.930;2022-10-16T07:35:21;4.18;;;3.78;;
10335;SDS011;5213;53.548;9.930;2022-10-16T07:37:47;7.05;;;3.85;;
10335;SDS011;5213;53.548;9.930;2022-10-16T07:40:13;5.45;;;3.50;;
10335;SDS011;5213;53.548;9.930;2022-10-16T07:42:39;5.90;;;3.53;;
10335;SDS011;5213;53.548;9.930;2022-10-16T07:45:05;4.47;;;3.58;;
10335;SDS011;5213;53.548;9.930;2022-10-16T07:47:31;6.85;;;3.72;;
10335;SDS011;5213;53.548;9.930;2022-10-16T07:49:57;3.47;;;3.03;;
10335;SDS011;5213;53.548;9.930;2022-10-16T07:52:23;5.70;;;3.47;;
10335;SDS011;5213;53.548;9.930;2022-10-16T07:54:49;4.78;;;3.30;;
10335;SDS011;5213;53.548;9.930;2022-10-16T07:57:15;3.40;;;3.10;;
10335;SDS011;5213;53.548;9.930;2022-10-16T07:59:44;5.45;;;3.50;;
10335;SDS011;5213;53.548;9.930;2022-10-16T08:02:11;4.53;;;3.58;;
10335;SDS011;5213;53.548;9.930;2022-10-16T08:04:37;5.80;;;3.95;;
10335;SDS011;5213;53.548;9.930;2022-10-16T08:07:03;6.65;;;3.60;;
10335;SDS011;5213;53.548;9.930;2022-10-16T08:09:29;3.72;;;3.35;;
10335;SDS011;5213;53.548;9.930;2022-10-16T08:11:55;5.47;;;3.30;;
10335;SDS011;5213;53.548;9.930;2022-10-16T08:14:21;4.07;;;3.17;;
10335;SDS011;5213;53.548;9.930;2022-10-16T08:16:47;4.30;;;3.25;;
10335;SDS011;5213;53.548;9.930;2022-10-16T08:19:13;4.15;;;3.20;;
10335;SDS011;5213;53.548;9.930;2022-10-16T08:21:40;4.93;;;3.53;;
10335;SDS011;5213;53.548;9.930;2022-10-16T08:24:06;4.38;;;3.30;;
10335;SDS011;5213;53.548;9.930;2022-10-16T08:26:32;4.32;;;3.10;;
10335;SDS011;5213;53.548;9.930;2022-10-16T08:28:58;5.47;;;3.35;;
10335;SDS011;5213;53.548;9.930;2022-10-16T08:31:24;3.40;;;3.10;;
10335;SDS011;5213;53.548;9.930;2022-10-16T08:33:52;4.75;;;3.35;;
10335;SDS011;5213;53.548;9.930;2022-10-16T08:36:18;5.47;;;3.30;;
10335;SDS011;5213;53.548;9.930;2022-10-16T08:38:46;4.80;;;3.47;;
10335;SDS011;5213;53.548;9.930;2022-10-16T08:49:01;3.08;;;2.70;;
10335;SDS011;5213;53.548;9.930;2022-10-16T08:51:32;3.30;;;3.00;;
10335;SDS011;5213;53.548;9.930;2022-10-16T08:54:03;4.20;;;2.80;;
10335;SDS011;5213;53.548;9.930;2022-10-16T08:56:29;3.92;;;3.22;;
10335;SDS011;5213;53.548;9.930;2022-10-16T08:58:57;3.67;;;2.65;;
10335;SDS011;5213;53.548;9.930;2022-10-16T09:01:23;3.35;;;2.83;;
10335;SDS011;5213;53.548;9.930;2022-10-16T09:11:59;5.65;;;2.33;;
10335;SDS011;5213;53.548;9.930;2022-10-16T09:14:49;2.67;;;2.28;;
10335;SDS011;5213;53.548;9.930;2022-10-16T09:22:42;2.50;;;2.30;;
10335;SDS011;5213;53.548;9.930;2022-10-16T09:25:13;3.60;;;2.35;;
10335;SDS011;5213;53.548;9.930;2022-10-16T09:27:39;7.07;;;2.40;;
10335;SDS011;5213;53.548;9.930;2022-10-16T09:30:16;4.05;;;2.25;;
10335;SDS011;5213;53.548;9.930;2022-10-16T09:32:42;3.72;;;1.90;;
10335;SDS011;5213;53.548;9.930;2022-10-16T09:35:11;3.60;;;1.83;;
10335;SDS011;5213;53.548;9.930;2022-10-16T09:37:38;2.25;;;1.88;;
10335;SDS011;5213;53.548;9.930;2022-10-16T09:40:05;2.33;;;1.73;;
10335;SDS011;5213;53.548;9.930;2022-10-16T09:42:32;2.50;;;1.80;;
10335;SDS011;5213;53.548;9.930;2022-10-16T09:45:00;3.10;;;1.80;;
10335;SDS011;5213;53.548;9.930;2022-10-16T09:47:27;3.63;;;1.80;;
10335;SDS011;5213;53.548;9.930;2022-10-16T09:49:55;2.45;;;1.63;;
10335;SDS011;5213;53.548;9.930;2022-10-16T09:52:22;2.40;;;1.70;;
10335;SDS011;5213;53.548;9.930;2022-10-16T09:54:52;2.28;;;1.70;;
10335;SDS011;5213;53.548;9.930;2022-10-16T09:57:19;2.00;;;1.80;;
10335;SDS011;5213;53.548;9.930;2022-10-16T09:59:49;2.55;;;1.70;;
10335;SDS011;5213;53.548;9.930;2022-10-16T10:02:17;2.78;;;2.28;;
10335;SDS011;5213;53.548;9.930;2022-10-16T10:04:50;3.03;;;1.85;;
10335;SDS011;5213;53.548;9.930;2022-10-16T10:07:30;2.50;;;1.92;;
10335;SDS011;5213;53.548;9.930;2022-10-16T10:10:01;2.85;;;1.98;;
10335;SDS011;5213;53.548;9.930;2022-10-16T10:12:28;6.10;;;2.15;;
10335;SDS011;5213;53.548;9.930;2022-10-16T10:14:57;2.58;;;1.95;;
10335;SDS011;5213;53.548;9.930;2022-10-16T10:17:24;5.18;;;1.60;;
10335;SDS011;5213;53.548;9.930;2022-10-16T10:19:57;4.60;;;1.90;;
10335;SDS011;5213;53.548;9.930;2022-10-16T10:22:24;5.57;;;1.77;;
10335;SDS011;5213;53.548;9.930;2022-10-16T10:30:18;4.72;;;1.85;;
10335;SDS011;5213;53.548;9.930;2022-10-16T10:35:30;3.72;;;1.77;;
10335;SDS011;5213;53.548;9.930;2022-10-16T10:42:53;3.40;;;1.60;;
10335;SDS011;5213;53.548;9.930;2022-10-16T10:53:44;2.80;;;1.45;;
10335;SDS011;5213;53.548;9.930;2022-10-16T11:01:44;2.92;;;1.48;;
10335;SDS011;5213;53.548;9.930;2022-10-16T11:04:22;5.10;;;1.63;;
10335;SDS011;5213;53.548;9.930;2022-10-16T11:07:04;2.85;;;1.50;;
10335;SDS011;5213;53.548;9.930;2022-10-16T11:09:31;2.28;;;1.42;;
10335;SDS011;5213;53.548;9.930;2022-10-16T11:12:00;3.72;;;1.20;;
10335;SDS011;5213;53.548;9.930;2022-10-16T11:14:30;4.10;;;1.30;;
10335;SDS011;5213;53.548;9.930;2022-10-16T11:16:58;3.92;;;1.17;;
10335;SDS011;5213;53.548;9.930;2022-10-16T11:22:03;3.63;;;1.30;;
10335;SDS011;5213;53.548;9.930;2022-10-16T11:24:35;2.20;;;1.38;;
10335;SDS011;5213;53.548;9.930;2022-10-16T11:27:03;2.15;;;1.10;;
10335;SDS011;5213;53.548;9.930;2022-10-16T11:29:31;3.35;;;1.27;;
10335;SDS011;5213;53.548;9.930;2022-10-16T11:32:04;4.97;;;1.30;;
10335;SDS011;5213;53.548;9.930;2022-10-16T11:34:36;3.35;;;1.20;;
10335;SDS011;5213;53.548;9.930;2022-10-16T11:37:17;2.20;;;1.05;;
10335;SDS011;5213;53.548;9.930;2022-10-16T11:39:45;2.72;;;1.20;;
10335;SDS011;5213;53.548;9.930;2022-10-16T11:47:23;2.97;;;1.40;;
10335;SDS011;5213;53.548;9.930;2022-10-16T11:49:52;3.03;;;1.30;;
10335;SDS011;5213;53.548;9.930;2022-10-16T11:52:20;2.75;;;1.20;;
10335;SDS011;5213;53.548;9.930;2022-10-16T11:54:53;3.58;;;1.48;;
10335;SDS011;5213;53.548;9.930;2022-10-16T11:57:29;1.63;;;1.10;;
10335;SDS011;5213;53.548;9.930;2022-10-16T11:59:58;3.40;;;1.40;;
10335;SDS011;5213;53.548;9.930;2022-10-16T12:07:46;4.22;;;1.40;;
10335;SDS011;5213;53.548;9.930;2022-10-16T12:10:20;2.15;;;1.15;;
10335;SDS011;5213;53.548;9.930;2022-10-16T12:12:46;2.65;;;1.52;;
10335;SDS011;5213;53.548;9.930;2022-10-16T12:17:45;5.50;;;1.48;;
10335;SDS011;5213;53.548;9.930;2022-10-16T12:22:40;2.33;;;1.20;;
10335;SDS011;5213;53.548;9.930;2022-10-16T12:27:57;4.53;;;1.60;;
10335;SDS011;5213;53.548;9.930;2022-10-16T12:30:23;2.88;;;1.50;;
10335;SDS011;5213;53.548;9.930;2022-10-16T12:32:57;2.72;;;1.50;;
10335;SDS011;5213;53.548;9.930;2022-10-16T12:35:25;2.40;;;1.27;;
10335;SDS011;5213;53.548;9.930;2022-10-16T12:37:52;5.03;;;1.10;;
10335;SDS011;5213;53.548;9.930;2022-10-16T12:42:47;1.98;;;1.25;;
10335;SDS011;5213;53.548;9.930;2022-10-16T12:45:32;2.70;;;1.30;;
10335;SDS011;5213;53.548;9.930;2022-10-16T12:47:59;3.85;;;1.20;;
10335;SDS011;5213;53.548;9.930;2022-10-16T12:50:36;4.68;;;1.38;;
10335;SDS011;5213;53.548;9.930;2022-10-16T12:53:03;2.25;;;1.15;;
10335;SDS011;5213;53.548;9.930;2022-10-16T12:55:42;4.60;;;1.27;;
10335;SDS011;5213;53.548;9.930;2022-10-16T13:01:16;2.88;;;1.00;;
10335;SDS011;5213;53.548;9.930;2022-10-16T13:03:52;2.78;;;1.20;;
10335;SDS011;5213;53.548;9.930;2022-10-16T13:11:41;3.53;;;1.13;;
10335;SDS011;5213;53.548;9.930;2022-10-16T13:19:34;3.58;;;1.38;;
10335;SDS011;5213;53.548;9.930;2022-10-16T13:29:43;3.40;;;1.35;;
10335;SDS011;5213;53.548;9.930;2022-10-16T13:32:09;2.10;;;1.13;;
10335;SDS011;5213;53.548;9.930;2022-10-16T13:34:44;4.18;;;1.23;;
10335;SDS011;5213;53.548;9.930;2022-10-16T13:37:18;2.92;;;1.10;;
10335;SDS011;5213;53.548;9.930;2022-10-16T13:39:45;5.32;;;1.45;;
10335;SDS011;5213;53.548;9.930;2022-10-16T13:42:29;4.05;;;1.48;;
10335;SDS011;5213;53.548;9.930;2022-10-16T13:44:56;3.03;;;1.50;;
10335;SDS011;5213;53.548;9.930;2022-10-16T13:47:23;1.95;;;1.40;;
10335;SDS011;5213;53.548;9.930;2022-10-16T13:49:59;1.85;;;1.00;;
10335;SDS011;5213;53.548;9.930;2022-10-16T13:52:26;2.88;;;1.20;;
10335;SDS011;5213;53.548;9.930;2022-10-16T13:54:52;3.42;;;1.40;;
10335;SDS011;5213;53.548;9.930;2022-10-16T13:57:18;2.88;;;1.10;;
10335;SDS011;5213;53.548;9.930;2022-10-16T13:59:47;5.03;;;1.33;;
10335;SDS011;5213;53.548;9.930;2022-10-16T14:04:54;2.25;;;1.20;;
10335;SDS011;5213;53.548;9.930;2022-10-16T14:07:25;4.57;;;1.50;;
10335;SDS011;5213;53.548;9.930;2022-10-16T14:09:52;5.40;;;1.20;;
10335;SDS011;5213;53.548;9.930;2022-10-16T14:12:19;1.75;;;1.20;;
10335;SDS011;5213;53.548;9.930;2022-10-16T14:14:46;5.15;;;1.40;;
10335;SDS011;5213;53.548;9.930;2022-10-16T14:17:18;4.82;;;1.60;;
10335;SDS011;5213;53.548;9.930;2022-10-16T14:19:48;3.30;;;1.50;;
10335;SDS011;5213;53.548;9.930;2022-10-16T14:22:20;2.47;;;1.40;;
10335;SDS011;5213;53.548;9.930;2022-10-16T14:24:47;4.35;;;1.70;;
10335;SDS011;5213;53.548;9.930;2022-10-16T14:27:55;3.53;;;1.40;;
10335;SDS011;5213;53.548;9.930;2022-10-16T14:32:42;5.22;;;1.30;;
10335;SDS011;5213;53.548;9.930;2022-10-16T14:35:31;4.00;;;1.42;;
10335;SDS011;5213;53.548;9.930;2022-10-16T14:37:58;1.63;;;1.27;;
10335;SDS011;5213;53.548;9.930;2022-10-16T14:40:29;4.53;;;1.40;;
10335;SDS011;5213;53.548;9.930;2022-10-16T14:42:55;3.30;;;1.38;;
10335;SDS011;5213;53.548;9.930;2022-10-16T14:45:22;2.90;;;1.45;;
10335;SDS011;5213;53.548;9.930;2022-10-16T14:47:50;3.50;;;1.50;;
10335;SDS011;5213;53.548;9.930;2022-10-16T14:50:18;2.05;;;1.27;;
10335;SDS011;5213;53.548;9.930;2022-10-16T14:52:44;5.15;;;1.70;;
10335;SDS011;5213;53.548;9.930;2022-10-16T14:55:10;5.18;;;1.80;;
10335;SDS011;5213;53.548;9.930;2022-10-16T14:57:36;4.53;;;1.55;;
10335;SDS011;5213;53.548;9.930;2022-10-16T15:00:15;4.13;;;1.30;;
10335;SDS011;5213;53.548;9.930;2022-10-16T15:02:41;4.75;;;1.50;;
10335;SDS011;5213;53.548;9.930;2022-10-16T15:05:12;5.03;;;1.30;;
10335;SDS011;5213;53.548;9.930;2022-10-16T15:07:39;7.75;;;1.48;;
10335;SDS011;5213;53.548;9.930;2022-10-16T15:10:05;4.65;;;1.67;;
10335;SDS011;5213;53.548;9.930;2022-10-16T15:12:31;3.80;;;1.65;;
10335;SDS011;5213;53.548;9.930;2022-10-16T15:14:57;3.33;;;1.33;;
10335;SDS011;5213;53.548;9.930;2022-10-16T15:17:22;2.25;;;1.30;;
10335;SDS011;5213;53.548;9.930;2022-10-16T15:19:48;4.05;;;1.30;;
10335;SDS011;5213;53.548;9.930;2022-10-16T15:22:16;4.05;;;1.42;;
10335;SDS011;5213;53.548;9.930;2022-10-16T15:24:42;3.67;;;1.38;;
10335;SDS011;5213;53.548;9.930;2022-10-16T15:27:08;2.05;;;1.48;;
10335;SDS011;5213;53.548;9.930;2022-10-16T15:29:34;3.33;;;1.30;;
10335;SDS011;5213;53.548;9.930;2022-10-16T15:32:00;2.78;;;1.45;;
10335;SDS011;5213;53.548;9.930;2022-10-16T15:34:26;3.25;;;1.52;;
10335;SDS011;5213;53.548;9.930;2022-10-16T15:36:52;3.17;;;1.60;;
10335;SDS011;5213;53.548;9.930;2022-10-16T15:39:20;4.35;;;1.70;;
10335;SDS011;5213;53.548;9.930;2022-10-16T15:41:46;3.88;;;1.40;;
10335;SDS011;5213;53.548;9.930;2022-10-16T15:44:16;5.25;;;1.95;;
10335;SDS011;5213;53.548;9.930;2022-10-16T15:46:42;6.45;;;1.77;;
10335;SDS011;5213;53.548;9.930;2022-10-16T15:49:08;4.25;;;1.50;;
10335;SDS011;5213;53.548;9.930;2022-10-16T15:51:34;2.50;;;1.40;;
10335;SDS011;5213;53.548;9.930;2022-10-16T15:54:03;6.20;;;1.80;;
10335;SDS011;5213;53.548;9.930;2022-10-16T15:56:29;7.03;;;1.52;;
10335;SDS011;5213;53.548;9.930;2022-10-16T15:58:58;2.53;;;1.63;;
10335;SDS011;5213;53.548;9.930;2022-10-16T16:01:24;5.43;;;2.30;;
10335;SDS011;5213;53.548;9.930;2022-10-16T16:03:52;2.65;;;1.38;;
10335;SDS011;5213;53.548;9.930;2022-10-16T16:06:18;3.10;;;1.63;;
10335;SDS011;5213;53.548;9.930;2022-10-16T16:08:44;3.03;;;1.67;;
10335;SDS011;5213;53.548;9.930;2022-10-16T16:11:11;5.25;;;1.70;;
10335;SDS011;5213;53.548;9.930;2022-10-16T16:13:38;10.30;;;2.20;;
10335;SDS011;5213;53.548;9.930;2022-10-16T16:16:08;3.15;;;1.75;;
10335;SDS011;5213;53.548;9.930;2022-10-16T16:18:35;3.85;;;1.90;;
10335;SDS011;5213;53.548;9.930;2022-10-16T16:21:01;5.43;;;1.90;;
10335;SDS011;5213;53.548;9.930;2022-10-16T16:23:27;3.75;;;2.17;;
10335;SDS011;5213;53.548;9.930;2022-10-16T16:26:02;6.43;;;2.60;;
10335;SDS011;5213;53.548;9.930;2022-10-16T16:28:28;3.65;;;2.25;;
10335;SDS011;5213;53.548;9.930;2022-10-16T16:30:54;7.30;;;2.70;;
10335;SDS011;5213;53.548;9.930;2022-10-16T16:33:20;7.45;;;2.00;;
10335;SDS011;5213;53.548;9.930;2022-10-16T16:35:46;6.43;;;2.28;;
10335;SDS011;5213;53.548;9.930;2022-10-16T16:38:12;4.28;;;1.80;;
10335;SDS011;5213;53.548;9.930;2022-10-16T16:40:38;5.32;;;2.08;;
10335;SDS011;5213;53.548;9.930;2022-10-16T16:43:04;5.40;;;2.10;;
10335;SDS011;5213;53.548;9.930;2022-10-16T16:45:30;6.20;;;2.50;;
10335;SDS011;5213;53.548;9.930;2022-10-16T16:48:00;6.07;;;2.03;;
10335;SDS011;5213;53.548;9.930;2022-10-16T16:50:26;4.80;;;2.30;;
10335;SDS011;5213;53.548;9.930;2022-10-16T16:52:52;9.30;;;2.67;;
10335;SDS011;5213;53.548;9.930;2022-10-16T16:55:18;4.85;;;2.25;;
10335;SDS011;5213;53.548;9.930;2022-10-16T16:57:44;5.20;;;2.33;;
10335;SDS011;5213;53.548;9.930;2022-10-16T17:00:13;7.20;;;2.60;;
10335;SDS011;5213;53.548;9.930;2022-10-16T17:02:39;4.68;;;2.38;;